sensor_id;sensor_type;location;lat;lon;timestamp;pressure;altitude;pressure_sealevel;temperature;humidity
51496;BME280;37572;52.094;4.870;2023-05-12T00:00:16;101780.22;;;17.25;58.54
51496;BME280;37572;52.094;4.870;2023-05-12T00:02:42;101770.31;;;17.26;58.79
51496;BME280;37572;52.094;4.870;2023-05-12T00:05:08;101771.31;;;17.25;58.66
51496;BME280;37572;52.094;4.870;2023-05-12T00:07:34;101772.34;;;17.24;58.94
51496;BME280;37572;52.094;4.870;2023-05-12T00:09:59;101777.91;;;17.22;59.09
51496;BME280;37572;52.094;4.870;2023-05-12T00:12:24;101774.34;;;17.22;58.57
51496;BME280;37572;52.094;4.870;2023-05-12T00:14:50;101770.84;;;17.21;58.75
51496;BME280;37572;52.094;4.870;2023-05-12T00:17:15;101773.34;;;17.23;58.63
51496;BME280;37572;52.094;4.870;2023-05-12T00:19:40;101775.22;;;17.22;58.50
51496;BME280;37572;52.094;4.870;2023-05-12T00:22:08;101769.84;;;17.22;58.38
51496;BME280;37572;52.094;4.870;2023-05-12T00:24:34;101769.84;;;17.22;58.43
51496;BME280;37572;52.094;4.870;2023-05-12T00:26:59;101762.78;;;17.21;58.42
51496;BME280;37572;52.094;4.870;2023-05-12T00:29:25;101763.59;;;17.22;58.38
51496;BME280;37572;52.094;4.870;2023-05-12T00:31:50;101761.06;;;17.20;58.59
51496;BME280;37572;52.094;4.870;2023-05-12T00:34:15;101762.94;;;17.19;58.57
51496;BME280;37572;52.094;4.870;2023-05-12T00:36:41;101766.63;;;17.18;58.72
51496;BME280;37572;52.094;4.870;2023-05-12T00:39:06;101766.84;;;17.17;58.45
51496;BME280;37572;52.094;4.870;2023-05-12T00:41:31;101773.41;;;17.14;58.79
51496;BME280;37572;52.094;4.870;2023-05-12T00:43:56;101764.66;;;17.12;58.61
51496;BME280;37572;52.094;4.870;2023-05-12T00:46:22;101764.19;;;17.09;58.73
51496;BME280;37572;52.094;4.870;2023-05-12T00:48:47;101760.81;;;17.07;58.29
51496;BME280;37572;52.094;4.870;2023-05-12T00:51:14;101763.03;;;17.03;58.68
51496;BME280;37572;52.094;4.870;2023-05-12T00:53:41;101759.84;;;16.99;58.80
51496;BME280;37572;52.094;4.870;2023-05-12T00:56:06;101761.03;;;16.97;58.59
51496;BME280;37572;52.094;4.870;2023-05-12T00:58:32;101767.63;;;16.94;58.69
51496;BME280;37572;52.094;4.870;2023-05-12T01:00:57;101753.69;;;16.91;58.66
51496;BME280;37572;52.094;4.870;2023-05-12T01:03:23;101765.63;;;16.88;58.47
51496;BME280;37572;52.094;4.870;2023-05-12T01:06:05;101756.88;;;16.86;58.79
51496;BME280;37572;52.094;4.870;2023-05-12T01:08:34;101755.53;;;16.82;58.93
51496;BME280;37572;52.094;4.870;2023-05-12T01:11:00;101756.53;;;16.81;58.48
51496;BME280;37572;52.094;4.870;2023-05-12T01:13:26;101758.56;;;16.79;58.85
51496;BME280;37572;52.094;4.870;2023-05-12T01:15:52;101754.38;;;16.76;58.88
51496;BME280;37572;52.094;4.870;2023-05-12T01:18:22;101751.84;;;16.75;58.69
51496;BME280;37572;52.094;4.870;2023-05-12T01:20:47;101751.03;;;16.74;58.96
51496;BME280;37572;52.094;4.870;2023-05-12T01:23:17;101748.50;;;16.73;58.99
51496;BME280;37572;52.094;4.870;2023-05-12T01:25:45;101744.13;;;16.72;58.70
51496;BME280;37572;52.094;4.870;2023-05-12T01:28:11;101747.84;;;16.71;58.85
51496;BME280;37572;52.094;4.870;2023-05-12T01:30:37;101746.31;;;16.68;59.04
51496;BME280;37572;52.094;4.870;2023-05-12T01:33:06;101742.16;;;16.65;59.14
51496;BME280;37572;52.094;4.870;2023-05-12T01:35:32;101743.16;;;16.64;59.10
51496;BME280;37572;52.094;4.870;2023-05-12T01:37:57;101733.56;;;16.62;59.00
51496;BME280;37572;52.094;4.870;2023-05-12T01:40:23;101734.59;;;16.61;58.95
51496;BME280;37572;52.094;4.870;2023-05-12T01:42:48;101739.97;;;16.61;59.32
51496;BME280;37572;52.094;4.870;2023-05-12T01:45:13;101741.84;;;16.60;59.19
51496;BME280;37572;52.094;4.870;2023-05-12T01:47:39;101732.25;;;16.58;59.13
51496;BME280;37572;52.094;4.870;2023-05-12T01:50:04;101738.63;;;16.57;59.18
51496;BME280;37572;52.094;4.870;2023-05-12T01:52:29;101737.16;;;16.54;59.08
51496;BME280;37572;52.094;4.870;2023-05-12T01:54:55;101734.63;;;16.53;59.11
51496;BME280;37572;52.094;4.870;2023-05-12T01:57:20;101735.63;;;16.52;59.35
51496;BME280;37572;52.094;4.870;2023-05-12T01:59:46;101737.47;;;16.51;59.20
51496;BME280;37572;52.094;4.870;2023-05-12T02:02:11;101740.19;;;16.51;59.23
51496;BME280;37572;52.094;4.870;2023-05-12T02:04:37;101736.66;;;16.51;59.06
51496;BME280;37572;52.094;4.870;2023-05-12T02:07:02;101732.44;;;16.48;59.11
51496;BME280;37572;52.094;4.870;2023-05-12T02:09:27;101731.63;;;16.48;58.99
51496;BME280;37572;52.094;4.870;2023-05-12T02:11:53;101734.31;;;16.48;59.21
51496;BME280;37572;52.094;4.870;2023-05-12T02:14:18;101734.47;;;16.46;59.06
51496;BME280;37572;52.094;4.870;2023-05-12T02:16:43;101736.16;;;16.47;59.16
51496;BME280;37572;52.094;4.870;2023-05-12T02:19:09;101725.41;;;16.47;59.10
51496;BME280;37572;52.094;4.870;2023-05-12T02:21:34;101728.09;;;16.47;59.37
51496;BME280;37572;52.094;4.870;2023-05-12T02:23:59;101728.94;;;16.48;59.46
51496;BME280;37572;52.094;4.870;2023-05-12T02:26:25;101727.06;;;16.48;59.12
51496;BME280;37572;52.094;4.870;2023-05-12T02:28:50;101730.59;;;16.49;59.37
51496;BME280;37572;52.094;4.870;2023-05-12T02:31:15;101723.38;;;16.49;59.21
51496;BME280;37572;52.094;4.870;2023-05-12T02:33:41;101720.69;;;16.49;59.38
51496;BME280;37572;52.094;4.870;2023-05-12T02:36:06;101721.53;;;16.50;59.37
51496;BME280;37572;52.094;4.870;2023-05-12T02:38:32;101718.84;;;16.50;59.39
51496;BME280;37572;52.094;4.870;2023-05-12T02:40:57;101721.53;;;16.50;59.44
51496;BME280;37572;52.094;4.870;2023-05-12T02:43:23;101723.22;;;16.51;59.14
51496;BME280;37572;52.094;4.870;2023-05-12T02:45:48;101723.22;;;16.51;59.23
51496;BME280;37572;52.094;4.870;2023-05-12T02:48:13;101722.19;;;16.52;59.47
51496;BME280;37572;52.094;4.870;2023-05-12T02:50:38;101716.81;;;16.52;59.39
51496;BME280;37572;52.094;4.870;2023-05-12T02:53:04;101718.66;;;16.51;59.48
51496;BME280;37572;52.094;4.870;2023-05-12T02:55:29;101718.66;;;16.51;59.50
51496;BME280;37572;52.094;4.870;2023-05-12T02:57:55;101715.16;;;16.51;59.59
51496;BME280;37572;52.094;4.870;2023-05-12T03:00:21;101707.91;;;16.51;59.23
51496;BME280;37572;52.094;4.870;2023-05-12T03:02:46;101715.81;;;16.53;59.65
51496;BME280;37572;52.094;4.870;2023-05-12T03:05:11;101714.13;;;16.52;59.31
51496;BME280;37572;52.094;4.870;2023-05-12T03:07:36;101702.53;;;16.51;59.36
51496;BME280;37572;52.094;4.870;2023-05-12T03:10:02;101700.69;;;16.52;59.27
51496;BME280;37572;52.094;4.870;2023-05-12T03:12:28;101703.38;;;16.52;59.28
51496;BME280;37572;52.094;4.870;2023-05-12T03:14:53;101703.38;;;16.52;59.52
51496;BME280;37572;52.094;4.870;2023-05-12T03:17:19;101702.53;;;16.51;59.36
51496;BME280;37572;52.094;4.870;2023-05-12T03:19:45;101701.53;;;16.52;59.58
51496;BME280;37572;52.094;4.870;2023-05-12T03:22:10;101698.84;;;16.52;59.35
51496;BME280;37572;52.094;4.870;2023-05-12T03:24:36;101693.47;;;16.52;59.47
51496;BME280;37572;52.094;4.870;2023-05-12T03:27:01;101692.63;;;16.52;59.70
51496;BME280;37572;52.094;4.870;2023-05-12T03:29:26;101698.00;;;16.52;59.53
51496;BME280;37572;52.094;4.870;2023-05-12T03:31:52;101686.41;;;16.51;59.52
51496;BME280;37572;52.094;4.870;2023-05-12T03:34:18;101681.03;;;16.51;59.69
51496;BME280;37572;52.094;4.870;2023-05-12T03:36:43;101678.16;;;16.53;59.73
51496;BME280;37572;52.094;4.870;2023-05-12T03:39:09;101693.31;;;16.54;59.66
51496;BME280;37572;52.094;4.870;2023-05-12T03:41:35;101682.72;;;16.52;59.60
51496;BME280;37572;52.094;4.870;2023-05-12T03:44:01;101684.53;;;16.52;60.00
51496;BME280;37572;52.094;4.870;2023-05-12T03:46:26;101679.34;;;16.50;59.85
51496;BME280;37572;52.094;4.870;2023-05-12T03:48:52;101675.81;;;16.50;59.76
51496;BME280;37572;52.094;4.870;2023-05-12T03:51:17;101679.72;;;16.47;59.94
51496;BME280;37572;52.094;4.870;2023-05-12T03:53:43;101683.22;;;16.48;60.22
51496;BME280;37572;52.094;4.870;2023-05-12T03:56:10;101685.91;;;16.48;60.02
51496;BME280;37572;52.094;4.870;2023-05-12T03:58:36;101675.34;;;16.46;60.32
51496;BME280;37572;52.094;4.870;2023-05-12T04:01:01;101682.41;;;16.47;60.21
51496;BME280;37572;52.094;4.870;2023-05-12T04:03:27;101675.00;;;16.49;60.06
51496;BME280;37572;52.094;4.870;2023-05-12T04:06:00;101673.97;;;16.50;60.32
51496;BME280;37572;52.094;4.870;2023-05-12T04:08:27;101677.50;;;16.51;60.24
51496;BME280;37572;52.094;4.870;2023-05-12T04:10:56;101674.81;;;16.51;60.15
51496;BME280;37572;52.094;4.870;2023-05-12T04:13:23;101678.34;;;16.51;60.53
51496;BME280;37572;52.094;4.870;2023-05-12T04:15:49;101678.16;;;16.53;60.60
51496;BME280;37572;52.094;4.870;2023-05-12T04:18:15;101686.88;;;16.55;60.51
51496;BME280;37572;52.094;4.870;2023-05-12T04:20:40;101678.16;;;16.53;60.67
51496;BME280;37572;52.094;4.870;2023-05-12T04:23:05;101678.00;;;16.54;60.64
51496;BME280;37572;52.094;4.870;2023-05-12T04:25:31;101672.63;;;16.54;60.51
51496;BME280;37572;52.094;4.870;2023-05-12T04:27:56;101677.81;;;16.56;60.82
51496;BME280;37572;52.094;4.870;2023-05-12T04:30:22;101677.66;;;16.57;60.89
51496;BME280;37572;52.094;4.870;2023-05-12T04:32:47;101669.25;;;16.60;60.91
51496;BME280;37572;52.094;4.870;2023-05-12T04:35:13;101674.63;;;16.60;61.21
51496;BME280;37572;52.094;4.870;2023-05-12T04:37:38;101671.25;;;16.58;61.53
51496;BME280;37572;52.094;4.870;2023-05-12T04:40:05;101661.34;;;16.59;61.56
51496;BME280;37572;52.094;4.870;2023-05-12T04:42:31;101671.72;;;16.62;61.54
51496;BME280;37572;52.094;4.870;2023-05-12T04:44:56;101670.72;;;16.63;61.26
51496;BME280;37572;52.094;4.870;2023-05-12T04:47:21;101675.09;;;16.64;61.40
51496;BME280;37572;52.094;4.870;2023-05-12T04:49:47;101686.69;;;16.64;61.48
51496;BME280;37572;52.094;4.870;2023-05-12T04:52:12;101697.94;;;16.68;61.42
51496;BME280;37572;52.094;4.870;2023-05-12T04:54:37;101704.34;;;16.67;61.26
51496;BME280;37572;52.094;4.870;2023-05-12T04:57:03;101701.66;;;16.67;61.46
51496;BME280;37572;52.094;4.870;2023-05-12T04:59:29;101696.28;;;16.67;61.30
51496;BME280;37572;52.094;4.870;2023-05-12T05:01:56;101704.69;;;16.64;61.60
51496;BME280;37572;52.094;4.870;2023-05-12T05:04:21;101710.06;;;16.64;61.72
51496;BME280;37572;52.094;4.870;2023-05-12T05:06:46;101711.06;;;16.63;61.60
51496;BME280;37572;52.094;4.870;2023-05-12T05:09:12;101713.56;;;16.64;61.81
51496;BME280;37572;52.094;4.870;2023-05-12T05:11:37;101717.94;;;16.65;61.74
51496;BME280;37572;52.094;4.870;2023-05-12T05:14:02;101729.38;;;16.68;61.69
51496;BME280;37572;52.094;4.870;2023-05-12T05:16:28;101724.81;;;16.68;61.76
51496;BME280;37572;52.094;4.870;2023-05-12T05:18:53;101729.03;;;16.71;61.64
51496;BME280;37572;52.094;4.870;2023-05-12T05:21:19;101733.38;;;16.72;61.49
51496;BME280;37572;52.094;4.870;2023-05-12T05:23:44;101738.41;;;16.75;61.38
51496;BME280;37572;52.094;4.870;2023-05-12T05:26:09;101733.50;;;16.78;61.31
51496;BME280;37572;52.094;4.870;2023-05-12T05:28:35;101747.66;;;16.80;61.63
51496;BME280;37572;52.094;4.870;2023-05-12T05:31:00;101738.22;;;16.76;61.63
51496;BME280;37572;52.094;4.870;2023-05-12T05:33:26;101740.91;;;16.76;61.49
51496;BME280;37572;52.094;4.870;2023-05-12T05:35:51;101739.91;;;16.77;61.77
51496;BME280;37572;52.094;4.870;2023-05-12T05:38:17;101748.47;;;16.81;61.36
51496;BME280;37572;52.094;4.870;2023-05-12T05:40:42;101745.78;;;16.81;61.32
51496;BME280;37572;52.094;4.870;2023-05-12T05:43:07;101747.47;;;16.82;61.41
51496;BME280;37572;52.094;4.870;2023-05-12T05:45:33;101749.31;;;16.81;61.62
51496;BME280;37572;52.094;4.870;2023-05-12T05:47:58;101752.84;;;16.82;61.40
51496;BME280;37572;52.094;4.870;2023-05-12T05:50:24;101759.22;;;16.81;61.49
51496;BME280;37572;52.094;4.870;2023-05-12T05:52:49;101763.25;;;16.85;61.39
51496;BME280;37572;52.094;4.870;2023-05-12T05:55:14;101762.09;;;16.88;61.50
51496;BME280;37572;52.094;4.870;2023-05-12T05:57:40;101755.50;;;16.90;61.23
51496;BME280;37572;52.094;4.870;2023-05-12T06:00:05;101755.50;;;16.90;61.55
51496;BME280;37572;52.094;4.870;2023-05-12T06:02:34;101762.22;;;16.94;61.51
51496;BME280;37572;52.094;4.870;2023-05-12T06:04:59;101752.13;;;16.96;61.27
51496;BME280;37572;52.094;4.870;2023-05-12T06:07:25;101751.78;;;16.99;61.26
51496;BME280;37572;52.094;4.870;2023-05-12T06:09:53;101754.13;;;17.02;61.05
51496;BME280;37572;52.094;4.870;2023-05-12T06:12:19;101750.06;;;17.07;61.27
51496;BME280;37572;52.094;4.870;2023-05-12T06:14:44;101748.88;;;17.09;61.46
51496;BME280;37572;52.094;4.870;2023-05-12T06:17:09;101754.75;;;17.13;61.54
51496;BME280;37572;52.094;4.870;2023-05-12T06:19:35;101755.88;;;17.18;61.27
51496;BME280;37572;52.094;4.870;2023-05-12T06:22:00;101752.66;;;17.23;61.17
51496;BME280;37572;52.094;4.870;2023-05-12T06:24:26;101753.81;;;17.29;61.57
51496;BME280;37572;52.094;4.870;2023-05-12T06:26:51;101762.38;;;17.32;61.09
51496;BME280;37572;52.094;4.870;2023-05-12T06:29:16;101766.00;;;17.39;61.20
51496;BME280;37572;52.094;4.870;2023-05-12T06:31:42;101766.97;;;17.47;60.95
51496;BME280;37572;52.094;4.870;2023-05-12T06:34:07;101773.69;;;17.51;61.44
51496;BME280;37572;52.094;4.870;2023-05-12T06:36:32;101767.94;;;17.54;61.01
51496;BME280;37572;52.094;4.870;2023-05-12T06:38:58;101770.47;;;17.55;61.13
51496;BME280;37572;52.094;4.870;2023-05-12T06:41:23;101771.78;;;17.60;61.07
51496;BME280;37572;52.094;4.870;2023-05-12T06:43:49;101771.59;;;17.61;60.87
51496;BME280;37572;52.094;4.870;2023-05-12T06:46:15;101774.09;;;17.63;61.01
51496;BME280;37572;52.094;4.870;2023-05-12T06:48:41;101774.75;;;17.65;60.96
51496;BME280;37572;52.094;4.870;2023-05-12T06:51:07;101780.78;;;17.67;60.54
51496;BME280;37572;52.094;4.870;2023-05-12T06:53:32;101779.44;;;17.71;60.63
51496;BME280;37572;52.094;4.870;2023-05-12T06:56:01;101783.59;;;17.73;60.64
51496;BME280;37572;52.094;4.870;2023-05-12T06:58:27;101787.16;;;17.74;60.65
51496;BME280;37572;52.094;4.870;2023-05-12T07:00:52;101790.31;;;17.78;60.53
51496;BME280;37572;52.094;4.870;2023-05-12T07:03:17;101788.28;;;17.80;60.47
51496;BME280;37572;52.094;4.870;2023-05-12T07:05:42;101798.88;;;17.81;60.59
51496;BME280;37572;52.094;4.870;2023-05-12T07:08:08;101798.06;;;17.81;60.64
51496;BME280;37572;52.094;4.870;2023-05-12T07:10:33;101795.00;;;17.84;60.90
51496;BME280;37572;52.094;4.870;2023-05-12T07:12:59;101796.16;;;17.89;60.46
51496;BME280;37572;52.094;4.870;2023-05-12T07:15:24;101795.25;;;17.97;60.85
51496;BME280;37572;52.094;4.870;2023-05-12T07:17:50;101803.28;;;18.05;60.28
51496;BME280;37572;52.094;4.870;2023-05-12T07:20:15;101809.59;;;18.12;60.67
51496;BME280;37572;52.094;4.870;2023-05-12T07:22:40;101804.50;;;18.18;60.06
51496;BME280;37572;52.094;4.870;2023-05-12T07:25:06;101808.50;;;18.22;60.07
51496;BME280;37572;52.094;4.870;2023-05-12T07:27:32;101808.44;;;18.30;60.44
51496;BME280;37572;52.094;4.870;2023-05-12T07:29:57;101814.53;;;18.47;60.59
51496;BME280;37572;52.094;4.870;2023-05-12T07:32:23;101801.69;;;18.64;60.08
51496;BME280;37572;52.094;4.870;2023-05-12T07:34:49;101805.22;;;18.79;60.06
51496;BME280;37572;52.094;4.870;2023-05-12T07:37:14;101807.94;;;18.94;59.39
51496;BME280;37572;52.094;4.870;2023-05-12T07:39:40;101810.34;;;19.04;59.16
51496;BME280;37572;52.094;4.870;2023-05-12T07:42:05;101817.50;;;19.12;59.24
51496;BME280;37572;52.094;4.870;2023-05-12T07:44:31;101822.78;;;19.20;58.92
51496;BME280;37572;52.094;4.870;2023-05-12T07:46:57;101823.91;;;19.26;58.59
51496;BME280;37572;52.094;4.870;2023-05-12T07:49:22;101817.47;;;19.27;58.49
51496;BME280;37572;52.094;4.870;2023-05-12T07:51:48;101818.50;;;19.26;58.31
51496;BME280;37572;52.094;4.870;2023-05-12T07:54:13;101812.75;;;19.29;57.69
51496;BME280;37572;52.094;4.870;2023-05-12T07:56:38;101808.63;;;19.33;58.13
51496;BME280;37572;52.094;4.870;2023-05-12T07:59:04;101808.25;;;19.36;57.86
51496;BME280;37572;52.094;4.870;2023-05-12T08:01:30;101803.28;;;19.39;58.04
51496;BME280;37572;52.094;4.870;2023-05-12T08:03:55;101809.81;;;19.45;57.79
51496;BME280;37572;52.094;4.870;2023-05-12T08:06:20;101816.50;;;19.49;57.75
51496;BME280;37572;52.094;4.870;2023-05-12T08:08:46;101817.78;;;19.53;57.43
51496;BME280;37572;52.094;4.870;2023-05-12T08:11:11;101816.81;;;19.61;57.75
51496;BME280;37572;52.094;4.870;2023-05-12T08:13:37;101825.81;;;19.68;57.54
51496;BME280;37572;52.094;4.870;2023-05-12T08:16:02;101824.44;;;19.72;57.39
51496;BME280;37572;52.094;4.870;2023-05-12T08:18:28;101834.50;;;19.78;57.28
51496;BME280;37572;52.094;4.870;2023-05-12T08:20:53;101837.28;;;19.85;56.93
51496;BME280;37572;52.094;4.870;2023-05-12T08:23:19;101837.34;;;19.92;56.83
51496;BME280;37572;52.094;4.870;2023-05-12T08:25:44;101835.97;;;20.03;57.16
51496;BME280;37572;52.094;4.870;2023-05-12T08:28:10;101836.28;;;20.14;57.02
51496;BME280;37572;52.094;4.870;2023-05-12T08:30:37;101844.69;;;20.26;56.38
51496;BME280;37572;52.094;4.870;2023-05-12T08:33:02;101836.88;;;20.38;56.47
51496;BME280;37572;52.094;4.870;2023-05-12T08:35:28;101844.25;;;20.51;56.35
51496;BME280;37572;52.094;4.870;2023-05-12T08:37:53;101846.44;;;20.62;55.73
51496;BME280;37572;52.094;4.870;2023-05-12T08:40:20;101844.66;;;20.76;55.78
51496;BME280;37572;52.094;4.870;2023-05-12T08:43:08;101850.16;;;20.89;55.71
51496;BME280;37572;52.094;4.870;2023-05-12T08:45:37;101852.31;;;21.01;55.05
51496;BME280;37572;52.094;4.870;2023-05-12T08:48:05;101843.81;;;21.11;55.32
51496;BME280;37572;52.094;4.870;2023-05-12T08:50:34;101847.56;;;21.16;54.76
51496;BME280;37572;52.094;4.870;2023-05-12T08:53:02;101854.91;;;21.22;54.38
51496;BME280;37572;52.094;4.870;2023-05-12T08:55:28;101851.19;;;21.30;54.79
51496;BME280;37572;52.094;4.870;2023-05-12T08:57:55;101859.16;;;21.38;54.44
51496;BME280;37572;52.094;4.870;2023-05-12T09:00:22;101850.81;;;21.47;54.30
51496;BME280;37572;52.094;4.870;2023-05-12T09:02:50;101862.56;;;21.54;54.29
51496;BME280;37572;52.094;4.870;2023-05-12T09:05:15;101864.22;;;21.61;53.53
51496;BME280;37572;52.094;4.870;2023-05-12T09:07:42;101864.03;;;21.70;53.84
51496;BME280;37572;52.094;4.870;2023-05-12T09:10:14;101860.72;;;21.74;53.45
51496;BME280;37572;52.094;4.870;2023-05-12T09:12:41;101861.34;;;21.76;53.25
51496;BME280;37572;52.094;4.870;2023-05-12T09:15:10;101871.34;;;21.76;53.54
51496;BME280;37572;52.094;4.870;2023-05-12T09:17:38;101864.91;;;21.77;53.60
51496;BME280;37572;52.094;4.870;2023-05-12T09:20:04;101858.44;;;21.85;53.50
51496;BME280;37572;52.094;4.870;2023-05-12T09:22:32;101867.25;;;21.93;52.85
51496;BME280;37572;52.094;4.870;2023-05-12T09:24:59;101866.38;;;21.93;52.39
51496;BME280;37572;52.094;4.870;2023-05-12T09:27:28;101860.97;;;21.93;52.82
51496;BME280;37572;52.094;4.870;2023-05-12T09:29:54;101857.63;;;22.04;53.34
51496;BME280;37572;52.094;4.870;2023-05-12T09:32:33;101866.59;;;22.18;52.91
51496;BME280;37572;52.094;4.870;2023-05-12T09:35:05;101865.00;;;22.30;53.06
51496;BME280;37572;52.094;4.870;2023-05-12T09:37:32;101863.50;;;22.41;52.33
51496;BME280;37572;52.094;4.870;2023-05-12T09:39:59;101862.47;;;22.49;52.43
51496;BME280;37572;52.094;4.870;2023-05-12T09:42:28;101869.97;;;22.60;52.75
51496;BME280;37572;52.094;4.870;2023-05-12T09:44:58;101878.94;;;22.74;52.22
51496;BME280;37572;52.094;4.870;2023-05-12T09:47:26;101876.00;;;22.82;51.93
51496;BME280;37572;52.094;4.870;2023-05-12T09:49:53;101878.28;;;22.85;51.97
51496;BME280;37572;52.094;4.870;2023-05-12T09:52:20;101877.00;;;22.88;51.96
51496;BME280;37572;52.094;4.870;2023-05-12T09:54:46;101882.44;;;22.95;51.95
51496;BME280;37572;52.094;4.870;2023-05-12T09:57:14;101873.84;;;23.04;51.67
51496;BME280;37572;52.094;4.870;2023-05-12T09:59:42;101877.81;;;23.15;51.69
51496;BME280;37572;52.094;4.870;2023-05-12T10:02:12;101870.66;;;23.27;50.82
51496;BME280;37572;52.094;4.870;2023-05-12T10:04:43;101876.84;;;23.41;50.82
51496;BME280;37572;52.094;4.870;2023-05-12T10:07:12;101875.34;;;23.52;50.58
51496;BME280;37572;52.094;4.870;2023-05-12T10:09:40;101886.00;;;23.54;50.43
51496;BME280;37572;52.094;4.870;2023-05-12T10:12:07;101874.06;;;23.55;50.32
51496;BME280;37572;52.094;4.870;2023-05-12T10:14:33;101884.13;;;23.54;49.97
51496;BME280;37572;52.094;4.870;2023-05-12T10:17:00;101881.81;;;23.51;49.14
51496;BME280;37572;52.094;4.870;2023-05-12T10:19:27;101883.31;;;23.47;48.31
51496;BME280;37572;52.094;4.870;2023-05-12T10:21:55;101881.03;;;23.44;48.65
51496;BME280;37572;52.094;4.870;2023-05-12T10:24:23;101874.53;;;23.52;49.45
51496;BME280;37572;52.094;4.870;2023-05-12T10:26:49;101881.16;;;23.62;48.94
51496;BME280;37572;52.094;4.870;2023-05-12T10:29:15;101879.47;;;23.68;49.16
51496;BME280;37572;52.094;4.870;2023-05-12T10:31:42;101875.88;;;23.68;48.83
51496;BME280;37572;52.094;4.870;2023-05-12T10:34:15;101883.63;;;23.71;49.25
51496;BME280;37572;52.094;4.870;2023-05-12T10:36:49;101882.31;;;23.80;49.76
51496;BME280;37572;52.094;4.870;2023-05-12T10:39:15;101887.28;;;23.90;49.59
51496;BME280;37572;52.094;4.870;2023-05-12T10:41:41;101877.88;;;23.92;48.74
51496;BME280;37572;52.094;4.870;2023-05-12T10:44:07;101884.53;;;23.96;49.23
51496;BME280;37572;52.094;4.870;2023-05-12T10:46:34;101882.00;;;24.01;49.47
51496;BME280;37572;52.094;4.870;2023-05-12T10:49:02;101889.03;;;24.09;49.31
51496;BME280;37572;52.094;4.870;2023-05-12T10:51:32;101882.50;;;24.17;48.92
51496;BME280;37572;52.094;4.870;2023-05-12T10:56:27;101885.56;;;24.27;48.99
51496;BME280;37572;52.094;4.870;2023-05-12T11:01:38;101885.94;;;24.31;48.50
51496;BME280;37572;52.094;4.870;2023-05-12T11:04:14;101882.19;;;24.32;48.79
51496;BME280;37572;52.094;4.870;2023-05-12T11:06:40;101884.03;;;24.31;48.46
51496;BME280;37572;52.094;4.870;2023-05-12T11:09:06;101881.75;;;24.35;49.05
51496;BME280;37572;52.094;4.870;2023-05-12T11:11:32;101883.78;;;24.39;49.13
51496;BME280;37572;52.094;4.870;2023-05-12T11:13:57;101887.34;;;24.40;48.62
51496;BME280;37572;52.094;4.870;2023-05-12T11:16:23;101889.84;;;24.42;48.68
51496;BME280;37572;52.094;4.870;2023-05-12T11:19:04;101889.75;;;24.55;49.40
51496;BME280;37572;52.094;4.870;2023-05-12T11:21:33;101890.22;;;24.70;49.00
51496;BME280;37572;52.094;4.870;2023-05-12T11:24:00;101886.16;;;24.80;47.92
51496;BME280;37572;52.094;4.870;2023-05-12T11:26:26;101893.88;;;24.83;48.09
51496;BME280;37572;52.094;4.870;2023-05-12T11:28:52;101884.66;;;24.84;48.10
51496;BME280;37572;52.094;4.870;2023-05-12T11:31:19;101887.53;;;24.89;47.98
51496;BME280;37572;52.094;4.870;2023-05-12T11:33:45;101896.44;;;24.96;46.96
51496;BME280;37572;52.094;4.870;2023-05-12T11:36:11;101893.72;;;24.96;46.42
51496;BME280;37572;52.094;4.870;2023-05-12T11:38:36;101894.66;;;24.90;46.35
51496;BME280;37572;52.094;4.870;2023-05-12T11:41:01;101898.41;;;24.89;46.79
51496;BME280;37572;52.094;4.870;2023-05-12T11:43:27;101900.16;;;24.83;46.57
51496;BME280;37572;52.094;4.870;2023-05-12T11:45:53;101904.22;;;24.74;47.39
51496;BME280;37572;52.094;4.870;2023-05-12T11:48:31;101901.19;;;24.64;47.12
51496;BME280;37572;52.094;4.870;2023-05-12T11:50:57;101896.44;;;24.52;47.31
51496;BME280;37572;52.094;4.870;2023-05-12T11:53:22;101901.94;;;24.46;47.47
51496;BME280;37572;52.094;4.870;2023-05-12T11:55:53;101897.78;;;24.43;47.57
51496;BME280;37572;52.094;4.870;2023-05-12T11:58:21;101901.94;;;24.46;47.75
51496;BME280;37572;52.094;4.870;2023-05-12T12:00:47;101893.78;;;24.46;47.30
51496;BME280;37572;52.094;4.870;2023-05-12T12:03:14;101904.66;;;24.46;45.55
51496;BME280;37572;52.094;4.870;2023-05-12T12:05:43;101909.06;;;24.47;44.66
51496;BME280;37572;52.094;4.870;2023-05-12T12:08:14;101904.38;;;24.54;44.45
51496;BME280;37572;52.094;4.870;2023-05-12T12:10:45;101906.41;;;24.65;43.97
51496;BME280;37572;52.094;4.870;2023-05-12T12:13:11;101911.56;;;24.73;43.94
51496;BME280;37572;52.094;4.870;2023-05-12T12:15:36;101908.56;;;24.82;43.50
51496;BME280;37572;52.094;4.870;2023-05-12T12:18:01;101908.72;;;24.87;43.07
51496;BME280;37572;52.094;4.870;2023-05-12T12:20:27;101910.06;;;24.96;43.03
51496;BME280;37572;52.094;4.870;2023-05-12T12:22:53;101910.28;;;24.94;41.71
51496;BME280;37572;52.094;4.870;2023-05-12T12:25:19;101909.03;;;24.97;42.00
51496;BME280;37572;52.094;4.870;2023-05-12T12:27:45;101909.91;;;25.09;41.74
51496;BME280;37572;52.094;4.870;2023-05-12T12:30:11;101914.63;;;25.21;42.09
51496;BME280;37572;52.094;4.870;2023-05-12T12:32:37;101927.38;;;25.27;42.06
51496;BME280;37572;52.094;4.870;2023-05-12T12:35:02;101929.28;;;25.26;43.10
51496;BME280;37572;52.094;4.870;2023-05-12T12:37:30;101922.81;;;25.39;43.41
51496;BME280;37572;52.094;4.870;2023-05-12T12:39:56;101916.22;;;25.47;42.96
51496;BME280;37572;52.094;4.870;2023-05-12T12:42:21;101929.31;;;25.57;43.27
51496;BME280;37572;52.094;4.870;2023-05-12T12:44:47;101925.88;;;25.80;43.97
51496;BME280;37572;52.094;4.870;2023-05-12T12:47:14;101922.53;;;25.96;43.60
51496;BME280;37572;52.094;4.870;2023-05-12T12:49:39;101923.47;;;26.02;43.27